createdAt,value
2022-09-13T00:00:26.834Z,309.18
2022-09-13T00:01:26.873Z,309.18
2022-09-13T00:02:26.885Z,309.18
2022-09-13T00:03:26.840Z,309.18
2022-09-13T00:04:26.826Z,309.18
2022-09-13T00:05:26.842Z,309.18
2022-09-13T00:06:26.864Z,309.18
2022-09-13T00:07:26.839Z,309.18
2022-09-13T00:08:26.845Z,309.18
2022-09-13T00:09:26.838Z,309.18
2022-09-13T00:10:26.845Z,309.18
2022-09-13T00:11:26.857Z,309.18
2022-09-13T00:12:26.842Z,309.18
2022-09-13T00:13:26.840Z,309.18
2022-09-13T00:14:26.846Z,309.18
2022-09-13T00:15:26.843Z,309.18
2022-09-13T00:16:26.884Z,309.18
2022-09-13T00:17:26.845Z,309.18
2022-09-13T00:18:26.845Z,309.18
2022-09-13T00:19:26.842Z,309.18
2022-09-13T00:20:26.839Z,309.18
2022-09-13T00:21:26.848Z,309.18
2022-09-13T00:22:26.876Z,309.18
2022-09-13T00:23:26.848Z,309.18
2022-09-13T00:24:26.849Z,309.18
2022-09-13T00:25:26.848Z,309.18
2022-09-13T00:26:26.854Z,309.18
2022-09-13T00:27:26.858Z,309.18
2022-09-13T00:28:26.856Z,309.18
2022-09-13T00:29:26.850Z,309.18
2022-09-13T00:30:26.847Z,309.18
2022-09-13T00:31:26.889Z,309.18
2022-09-13T00:32:26.860Z,309.18
2022-09-13T00:33:26.854Z,309.18
2022-09-13T00:34:26.856Z,309.18
2022-09-13T00:35:26.859Z,309.18
2022-09-13T00:36:26.862Z,309.18
2022-09-13T00:37:26.863Z,309.18
2022-09-13T00:38:26.881Z,309.18
2022-09-13T00:39:26.857Z,309.18
2022-09-13T00:40:26.904Z,309.18
2022-09-13T00:41:26.859Z,309.18
2022-09-13T00:42:26.869Z,309.18
2022-09-13T00:43:26.860Z,309.18
2022-09-13T00:44:26.867Z,309.18
2022-09-13T00:45:26.912Z,309.18
2022-09-13T00:46:26.869Z,309.18
2022-09-13T00:47:26.866Z,309.18
2022-09-13T00:48:26.864Z,309.18
2022-09-13T00:49:26.871Z,309.18
2022-09-13T00:50:26.867Z,309.18
2022-09-13T00:51:26.869Z,309.18
2022-09-13T00:52:26.874Z,309.18
2022-09-13T00:53:26.870Z,309.18
2022-09-13T00:54:26.896Z,309.18
2022-09-13T00:55:26.877Z,309.18
2022-09-13T00:56:26.872Z,309.18
2022-09-13T00:57:26.868Z,309.18
2022-09-13T00:58:26.873Z,309.18
2022-09-13T00:59:26.879Z,309.18
2022-09-13T01:00:26.877Z,309.18
2022-09-13T01:01:26.932Z,309.18
2022-09-13T01:02:26.947Z,309.18
2022-09-13T01:03:26.872Z,309.18
2022-09-13T01:04:26.878Z,309.18
2022-09-13T01:05:26.878Z,309.18
2022-09-13T01:06:26.884Z,309.18
2022-09-13T01:07:26.878Z,309.18
2022-09-13T01:08:26.882Z,309.18
2022-09-13T01:09:26.883Z,309.18
2022-09-13T01:10:27.047Z,309.18
2022-09-13T01:11:26.883Z,309.18
2022-09-13T01:12:26.885Z,309.18
2022-09-13T01:13:26.889Z,309.18
2022-09-13T01:14:26.884Z,309.18
2022-09-13T01:15:26.878Z,309.18
2022-09-13T01:16:26.914Z,309.18
2022-09-13T01:17:26.887Z,309.18
2022-09-13T01:18:26.893Z,309.18
2022-09-13T01:19:26.889Z,309.18
2022-09-13T01:20:26.889Z,309.18
2022-09-13T01:21:26.897Z,309.18
2022-09-13T01:22:26.893Z,309.18
2022-09-13T01:23:26.892Z,309.18
2022-09-13T01:24:26.894Z,309.18
2022-09-13T01:25:26.896Z,309.18
2022-09-13T01:26:26.999Z,309.18
2022-09-13T01:27:26.899Z,309.18
2022-09-13T01:28:26.888Z,309.18
2022-09-13T01:29:26.894Z,309.18
2022-09-13T01:30:26.897Z,309.18
2022-09-13T01:31:26.929Z,309.18
2022-09-13T01:32:26.894Z,309.18
2022-09-13T01:33:26.902Z,309.18
2022-09-13T01:34:26.893Z,309.18
2022-09-13T01:35:26.898Z,309.18
2022-09-13T01:36:26.899Z,309.18
2022-09-13T01:37:26.897Z,309.18
2022-09-13T01:38:26.899Z,309.18
2022-09-13T01:39:26.900Z,309.18
2022-09-13T01:40:26.892Z,309.18
2022-09-13T01:41:26.896Z,309.18
2022-09-13T01:42:26.980Z,309.18
2022-09-13T01:43:26.893Z,309.18
2022-09-13T01:44:26.902Z,309.18
2022-09-13T01:45:27.008Z,309.18
2022-09-13T01:46:26.905Z,309.18
2022-09-13T01:47:26.902Z,309.18
2022-09-13T01:48:26.905Z,309.18
2022-09-13T01:49:26.908Z,309.18
2022-09-13T01:50:26.907Z,309.18
2022-09-13T01:51:26.896Z,309.18
2022-09-13T01:52:26.909Z,309.18
2022-09-13T01:53:26.901Z,309.18
2022-09-13T01:54:26.901Z,309.18
2022-09-13T01:55:26.909Z,309.18
2022-09-13T01:56:26.912Z,309.18
2022-09-13T01:57:26.902Z,309.18
2022-09-13T01:58:26.943Z,309.18
2022-09-13T01:59:26.912Z,309.18
2022-09-13T02:00:26.899Z,309.18
2022-09-13T02:01:26.979Z,309.18
2022-09-13T02:02:26.975Z,309.18
2022-09-13T02:03:26.916Z,309.18
2022-09-13T02:04:26.903Z,309.18
2022-09-13T02:05:26.911Z,309.18
2022-09-13T02:06:26.909Z,309.18
2022-09-13T02:07:26.903Z,309.18
2022-09-13T02:08:26.910Z,309.18
2022-09-13T02:09:26.902Z,309.18
2022-09-13T02:10:26.910Z,309.18
2022-09-13T02:11:26.912Z,309.18
2022-09-13T02:12:26.912Z,309.18
2022-09-13T02:13:26.920Z,309.18
2022-09-13T02:14:26.942Z,309.18
2022-09-13T02:15:26.900Z,309.18
2022-09-13T02:16:26.949Z,309.18
2022-09-13T02:17:26.917Z,309.18
2022-09-13T02:18:26.914Z,309.18
2022-09-13T02:19:26.921Z,309.18
2022-09-13T02:20:26.922Z,309.18
2022-09-13T02:21:26.916Z,309.18
2022-09-13T02:22:26.911Z,309.18
2022-09-13T02:23:26.918Z,309.18
2022-09-13T02:24:26.911Z,309.18
2022-09-13T02:25:26.912Z,309.18
2022-09-13T02:26:26.907Z,309.18
2022-09-13T02:27:26.911Z,309.18
2022-09-13T02:28:26.912Z,309.18
2022-09-13T02:29:26.917Z,309.18
2022-09-13T02:30:27.072Z,309.18
2022-09-13T02:31:26.955Z,309.18
2022-09-13T02:32:26.913Z,309.18
2022-09-13T02:33:26.915Z,309.18
2022-09-13T02:34:26.919Z,309.18
2022-09-13T02:35:26.916Z,309.18
2022-09-13T02:36:26.910Z,309.18
2022-09-13T02:37:26.923Z,309.18
2022-09-13T02:38:26.908Z,309.18
2022-09-13T02:39:26.907Z,309.18
2022-09-13T02:40:26.913Z,309.18
2022-09-13T02:41:26.919Z,309.18
2022-09-13T02:42:26.914Z,309.18
2022-09-13T02:43:26.915Z,309.18
2022-09-13T02:44:26.918Z,309.18
2022-09-13T02:45:26.962Z,309.18
2022-09-13T02:46:26.940Z,309.18
2022-09-13T02:47:26.924Z,309.18
2022-09-13T02:48:26.913Z,309.18
2022-09-13T02:49:26.923Z,309.18
2022-09-13T02:50:26.922Z,309.18
2022-09-13T02:51:26.920Z,309.18
2022-09-13T02:52:26.910Z,309.18
2022-09-13T02:53:26.926Z,309.18
2022-09-13T02:54:26.915Z,309.18
2022-09-13T02:55:26.921Z,309.18
2022-09-13T02:56:26.918Z,309.18
2022-09-13T02:57:26.928Z,309.18
2022-09-13T02:58:27.324Z,309.18
2022-09-13T02:59:26.923Z,309.18
2022-09-13T03:00:26.917Z,309.18
2022-09-13T03:01:26.998Z,309.18
2022-09-13T03:02:27.023Z,309.18
2022-09-13T03:03:26.922Z,309.18
2022-09-13T03:04:26.922Z,309.18
2022-09-13T03:05:26.919Z,309.18
2022-09-13T03:06:26.927Z,309.18
2022-09-13T03:07:26.916Z,309.18
2022-09-13T03:08:26.913Z,309.18
2022-09-13T03:09:26.922Z,309.18
2022-09-13T03:10:26.924Z,309.18
2022-09-13T03:11:26.918Z,309.18
2022-09-13T03:12:26.918Z,309.18
2022-09-13T03:13:26.926Z,309.18
2022-09-13T03:14:26.921Z,309.18
2022-09-13T03:15:26.923Z,309.18
2022-09-13T03:16:26.956Z,309.18
2022-09-13T03:17:26.925Z,309.18
2022-09-13T03:18:26.946Z,309.18
2022-09-13T03:19:26.925Z,309.18
2022-09-13T03:20:26.920Z,309.18
2022-09-13T03:21:26.925Z,309.18
2022-09-13T03:22:26.920Z,309.18
2022-09-13T03:23:26.923Z,309.18
2022-09-13T03:24:26.920Z,309.18
2022-09-13T03:25:26.927Z,309.18
2022-09-13T03:26:26.924Z,309.18
2022-09-13T03:27:26.925Z,309.18
2022-09-13T03:28:26.916Z,309.18
2022-09-13T03:29:26.923Z,309.18
2022-09-13T03:30:26.931Z,309.18
2022-09-13T03:31:26.984Z,309.18
2022-09-13T03:32:26.923Z,309.18
2022-09-13T03:33:26.919Z,309.18
2022-09-13T03:34:27.033Z,309.18
2022-09-13T03:35:26.939Z,309.18
2022-09-13T03:36:26.932Z,309.18
2022-09-13T03:37:26.934Z,309.18
2022-09-13T03:38:26.925Z,309.18
2022-09-13T03:39:26.933Z,309.18
2022-09-13T03:40:26.924Z,309.18
2022-09-13T03:41:26.927Z,309.18
2022-09-13T03:42:26.929Z,309.18
2022-09-13T03:43:26.932Z,309.18
2022-09-13T03:44:26.922Z,309.18
2022-09-13T03:45:26.978Z,309.18
2022-09-13T03:46:26.929Z,309.18
2022-09-13T03:47:26.931Z,309.18
2022-09-13T03:48:26.925Z,309.18
2022-09-13T03:49:26.934Z,309.18
2022-09-13T03:50:26.952Z,309.18
2022-09-13T03:51:26.939Z,309.18
2022-09-13T03:52:26.949Z,309.18
2022-09-13T03:53:26.946Z,309.18
2022-09-13T03:54:26.952Z,309.18
2022-09-13T03:55:26.942Z,309.18
2022-09-13T03:56:26.944Z,309.18
2022-09-13T03:57:26.958Z,309.18
2022-09-13T03:58:26.959Z,309.18
2022-09-13T03:59:26.945Z,309.18
2022-09-13T04:00:26.934Z,309.18
2022-09-13T04:01:27.007Z,309.18
2022-09-13T04:02:26.999Z,309.18
2022-09-13T04:03:26.948Z,309.18
2022-09-13T04:04:26.953Z,309.18
2022-09-13T04:05:26.958Z,309.18
2022-09-13T04:06:27.081Z,309.18
2022-09-13T04:07:26.957Z,309.18
2022-09-13T04:08:26.953Z,309.18
2022-09-13T04:09:26.962Z,309.18
2022-09-13T04:10:26.952Z,309.18
2022-09-13T04:11:26.966Z,309.18
2022-09-13T04:12:26.957Z,309.18
2022-09-13T04:13:26.965Z,309.18
2022-09-13T04:14:26.973Z,309.18
2022-09-13T04:15:26.959Z,309.18
2022-09-13T04:16:27.008Z,309.18
2022-09-13T04:17:26.965Z,309.18
2022-09-13T04:18:26.962Z,309.18
2022-09-13T04:19:26.962Z,309.18
2022-09-13T04:20:26.969Z,309.18
2022-09-13T04:21:26.963Z,309.18
2022-09-13T04:22:27.071Z,309.18
2022-09-13T04:23:26.967Z,309.18
2022-09-13T04:24:26.969Z,309.18
2022-09-13T04:25:26.970Z,309.18
2022-09-13T04:26:26.965Z,309.18
2022-09-13T04:27:26.973Z,309.18
2022-09-13T04:28:26.971Z,309.18
2022-09-13T04:29:26.978Z,309.18
2022-09-13T04:30:26.976Z,309.18
2022-09-13T04:31:27.050Z,309.18
2022-09-13T04:32:26.984Z,309.18
2022-09-13T04:33:26.982Z,309.18
2022-09-13T04:34:26.989Z,309.18
2022-09-13T04:35:26.981Z,309.18
2022-09-13T04:36:26.992Z,309.18
2022-09-13T04:37:26.991Z,309.18
2022-09-13T04:38:27.012Z,309.18
2022-09-13T04:39:27.000Z,309.18
2022-09-13T04:40:27.006Z,309.18
2022-09-13T04:41:27.006Z,309.18
2022-09-13T04:42:27.000Z,309.18
2022-09-13T04:43:27.009Z,309.18
2022-09-13T04:44:27.005Z,309.18
2022-09-13T04:45:27.000Z,309.18
2022-09-13T04:46:27.021Z,309.18
2022-09-13T04:47:27.004Z,309.18
2022-09-13T04:48:27.012Z,309.18
2022-09-13T04:49:27.016Z,309.18
2022-09-13T04:50:27.007Z,309.18
2022-09-13T04:51:27.009Z,309.18
2022-09-13T04:52:27.017Z,309.18
2022-09-13T04:53:27.017Z,309.18
2022-09-13T04:54:27.101Z,309.18
2022-09-13T04:55:27.024Z,309.18
2022-09-13T04:56:27.026Z,309.18
2022-09-13T04:57:27.026Z,309.18
2022-09-13T04:58:27.028Z,309.18
2022-09-13T04:59:27.025Z,309.18
2022-09-13T05:00:27.031Z,309.18
2022-09-13T05:01:27.986Z,309.18
2022-09-13T05:02:27.068Z,309.18
2022-09-13T05:03:27.032Z,309.18
2022-09-13T05:04:27.025Z,309.18
2022-09-13T05:05:27.036Z,309.18
2022-09-13T05:06:27.041Z,309.18
2022-09-13T05:07:27.043Z,309.18
2022-09-13T05:08:27.041Z,309.18
2022-09-13T05:09:27.041Z,309.18
2022-09-13T05:10:27.075Z,309.18
2022-09-13T05:11:27.057Z,309.18
2022-09-13T05:12:27.044Z,309.18
2022-09-13T05:13:27.051Z,309.18
2022-09-13T05:14:27.051Z,309.18
2022-09-13T05:15:27.058Z,309.18
2022-09-13T05:16:27.121Z,309.18
2022-09-13T05:17:27.068Z,309.18
2022-09-13T05:18:27.059Z,309.18
2022-09-13T05:19:27.063Z,309.18
2022-09-13T05:20:27.074Z,309.18
2022-09-13T05:21:27.075Z,309.18
2022-09-13T05:22:27.070Z,309.18
2022-09-13T05:23:27.074Z,309.18
2022-09-13T05:24:27.078Z,309.18
2022-09-13T05:25:27.081Z,309.18
2022-09-13T05:26:27.102Z,309.18
2022-09-13T05:27:27.074Z,309.18
2022-09-13T05:28:27.085Z,309.18
2022-09-13T05:29:27.078Z,309.18
2022-09-13T05:30:27.081Z,309.18
2022-09-13T05:31:27.153Z,309.18
2022-09-13T05:32:27.098Z,309.18
2022-09-13T05:33:27.093Z,309.18
2022-09-13T05:34:27.090Z,309.18
2022-09-13T05:35:27.085Z,309.18
2022-09-13T05:36:27.096Z,309.18
2022-09-13T05:37:27.097Z,309.18
2022-09-13T05:38:27.100Z,309.18
2022-09-13T05:39:33.766Z,309.18
2022-09-13T05:40:27.163Z,309.18
2022-09-13T05:41:27.101Z,309.18
2022-09-13T05:42:27.114Z,309.18
2022-09-13T05:43:27.100Z,309.18
2022-09-13T05:44:27.101Z,309.18
2022-09-13T05:45:27.105Z,309.18
2022-09-13T05:46:27.169Z,309.18
2022-09-13T05:47:27.099Z,309.18
2022-09-13T05:48:27.110Z,309.18
2022-09-13T05:49:27.107Z,309.18
2022-09-13T05:50:54.110Z,309.18
2022-09-13T05:51:27.104Z,309.18
2022-09-13T05:52:27.116Z,309.18
2022-09-13T05:53:27.116Z,309.18
2022-09-13T05:54:27.114Z,309.18
2022-09-13T05:55:27.122Z,309.18
2022-09-13T05:56:27.120Z,309.18
2022-09-13T05:57:27.121Z,309.18
2022-09-13T05:58:27.222Z,309.18
2022-09-13T05:59:27.123Z,309.18
2022-09-13T06:00:27.125Z,309.18
2022-09-13T06:01:27.169Z,309.18
2022-09-13T06:02:27.154Z,309.18
2022-09-13T06:03:27.129Z,309.18
2022-09-13T06:04:27.132Z,309.18
2022-09-13T06:05:31.247Z,309.18
2022-09-13T06:06:27.126Z,309.18
2022-09-13T06:07:27.126Z,309.18
2022-09-13T06:08:27.133Z,309.18
2022-09-13T06:09:27.133Z,309.18
2022-09-13T06:10:27.130Z,309.18
2022-09-13T06:11:27.140Z,309.18
2022-09-13T06:12:27.138Z,309.18
2022-09-13T06:13:27.143Z,309.18
2022-09-13T06:14:27.240Z,309.18
2022-09-13T06:15:27.144Z,309.18
2022-09-13T06:16:27.259Z,309.18
2022-09-13T06:17:27.143Z,309.18
2022-09-13T06:18:27.142Z,309.18
2022-09-13T06:19:27.139Z,309.18
2022-09-13T06:20:27.140Z,309.18
2022-09-13T06:21:29.244Z,309.18
2022-09-13T06:22:27.150Z,309.18
2022-09-13T06:23:27.135Z,309.18
2022-09-13T06:24:27.142Z,309.18
2022-09-13T06:25:27.148Z,309.18
2022-09-13T06:26:27.139Z,309.18
2022-09-13T06:27:27.140Z,309.18
2022-09-13T06:28:27.146Z,309.18
2022-09-13T06:29:27.156Z,309.18
2022-09-13T06:30:27.332Z,309.18
2022-09-13T06:31:27.389Z,309.18
2022-09-13T06:32:27.156Z,309.18
2022-09-13T06:33:27.159Z,309.18
2022-09-13T06:34:31.086Z,309.18
2022-09-13T06:35:27.161Z,309.18
2022-09-13T06:36:27.160Z,309.18
2022-09-13T06:37:27.155Z,309.18
2022-09-13T06:38:27.165Z,309.18
2022-09-13T06:39:27.166Z,309.18
2022-09-13T06:40:27.216Z,309.18
2022-09-13T06:41:27.201Z,309.18
2022-09-13T06:42:27.161Z,309.18
2022-09-13T06:43:27.166Z,309.18
2022-09-13T06:44:27.164Z,309.18
2022-09-13T06:45:27.165Z,309.18
2022-09-13T06:46:27.270Z,309.18
2022-09-13T06:47:27.164Z,309.18
2022-09-13T06:48:27.161Z,309.18
2022-09-13T06:49:27.168Z,309.18
2022-09-13T06:50:27.167Z,309.18
2022-09-13T06:51:27.172Z,309.18
2022-09-13T06:52:27.170Z,309.18
2022-09-13T06:53:27.170Z,309.18
2022-09-13T06:54:27.169Z,309.18
2022-09-13T06:55:27.172Z,309.18
2022-09-13T06:56:27.169Z,309.18
2022-09-13T06:57:27.178Z,309.18
2022-09-13T06:58:27.175Z,309.18
2022-09-13T06:59:27.175Z,309.18
2022-09-13T07:00:27.178Z,309.18
2022-09-13T07:01:27.299Z,309.18
2022-09-13T07:02:27.241Z,309.18
2022-09-13T07:03:27.187Z,309.18
2022-09-13T07:04:27.189Z,309.18
2022-09-13T07:05:27.189Z,309.18
2022-09-13T07:06:27.191Z,309.18
2022-09-13T07:07:27.194Z,309.18
2022-09-13T07:08:27.183Z,309.18
2022-09-13T07:09:27.203Z,309.18
2022-09-13T07:10:27.198Z,309.18
2022-09-13T07:11:27.201Z,309.18
2022-09-13T07:12:27.197Z,309.18
2022-09-13T07:13:27.198Z,309.18
2022-09-13T07:14:27.202Z,309.18
2022-09-13T07:15:27.204Z,309.18
2022-09-13T07:16:27.200Z,309.18
2022-09-13T07:17:30.832Z,309.18
2022-09-13T07:18:27.215Z,309.18
2022-09-13T07:19:27.206Z,309.18
2022-09-13T07:20:27.203Z,309.18
2022-09-13T07:21:27.197Z,309.18
2022-09-13T07:22:27.200Z,309.18
2022-09-13T07:23:27.217Z,309.18
2022-09-13T07:24:27.234Z,309.18
2022-09-13T07:25:27.207Z,309.18
2022-09-13T07:26:27.201Z,309.18
2022-09-13T07:27:27.214Z,309.18
2022-09-13T07:28:27.515Z,309.18
2022-09-13T07:29:27.209Z,309.18
2022-09-13T07:30:27.209Z,309.18
2022-09-13T07:31:27.259Z,309.18
2022-09-13T07:32:27.216Z,309.18
2022-09-13T07:33:27.223Z,309.18
2022-09-13T07:34:27.313Z,309.18
2022-09-13T07:35:27.231Z,309.18
2022-09-13T07:36:27.217Z,309.18
2022-09-13T07:37:27.220Z,309.18
2022-09-13T07:38:27.220Z,309.18
2022-09-13T07:39:27.223Z,309.18
2022-09-13T07:40:27.234Z,309.18
2022-09-13T07:41:27.237Z,309.18
2022-09-13T07:42:27.230Z,309.18
2022-09-13T07:43:27.221Z,309.18
2022-09-13T07:44:27.231Z,309.18
2022-09-13T07:45:27.235Z,309.18
2022-09-13T07:46:27.283Z,309.18
2022-09-13T07:47:27.241Z,309.18
2022-09-13T07:48:30.446Z,309.18
2022-09-13T07:49:27.231Z,309.18
2022-09-13T07:50:27.255Z,309.18
2022-09-13T07:51:27.229Z,309.18
2022-09-13T07:52:27.234Z,309.18
2022-09-13T07:53:27.249Z,309.18
2022-09-13T07:54:27.255Z,309.18
2022-09-13T07:55:27.248Z,309.18
2022-09-13T07:56:27.242Z,309.18
2022-09-13T07:57:27.232Z,309.18
2022-09-13T07:58:27.240Z,309.18
2022-09-13T07:59:30.157Z,309.18
2022-09-13T08:00:27.236Z,309.18
2022-09-13T08:01:27.276Z,309.18
2022-09-13T08:02:27.302Z,309.18
2022-09-13T08:03:27.237Z,309.18
2022-09-13T08:04:27.250Z,309.18
2022-09-13T08:05:27.244Z,309.18
2022-09-13T08:06:27.270Z,309.18
2022-09-13T08:07:27.247Z,309.18
2022-09-13T08:08:27.249Z,309.18
2022-09-13T08:09:27.239Z,309.18
2022-09-13T08:10:27.251Z,309.18
2022-09-13T08:11:27.254Z,309.18
2022-09-13T08:12:27.249Z,309.18
2022-09-13T08:13:27.260Z,309.18
2022-09-13T08:14:27.256Z,309.18
2022-09-13T08:15:27.267Z,309.18
2022-09-13T08:16:27.260Z,309.18
2022-09-13T08:17:49.514Z,309.18
2022-09-13T08:18:49.510Z,309.18
2022-09-13T08:19:49.527Z,309.18
2022-09-13T08:20:49.513Z,309.18
2022-09-13T08:21:49.534Z,309.18
2022-09-13T08:22:49.516Z,309.18
2022-09-13T08:23:49.585Z,309.18
2022-09-13T08:24:49.510Z,309.18
2022-09-13T08:25:49.517Z,309.18
2022-09-13T08:26:49.517Z,309.18
2022-09-13T08:27:49.516Z,309.18
2022-09-13T08:28:49.512Z,309.18
2022-09-13T08:29:49.519Z,309.18
2022-09-13T08:30:49.562Z,309.18
2022-09-13T08:31:49.523Z,309.18
2022-09-13T08:32:49.508Z,309.18
2022-09-13T08:33:49.806Z,309.18
2022-09-13T08:34:49.520Z,309.18
2022-09-13T08:35:49.526Z,309.18
2022-09-13T08:36:49.521Z,309.18
2022-09-13T08:37:49.625Z,309.18
2022-09-13T08:38:49.532Z,309.18
2022-09-13T08:39:49.545Z,309.18
2022-09-13T08:40:49.527Z,309.18
2022-09-13T08:41:49.515Z,309.18
2022-09-13T08:42:49.530Z,309.18
2022-09-13T08:43:49.697Z,309.18
2022-09-13T08:44:49.529Z,309.18
2022-09-13T08:45:49.587Z,309.18
2022-09-13T08:46:49.524Z,309.18
2022-09-13T08:47:49.533Z,309.18
2022-09-13T08:48:49.523Z,309.18
2022-09-13T08:49:49.528Z,309.18
2022-09-13T08:50:49.537Z,309.18
2022-09-13T08:51:49.524Z,309.18
2022-09-13T08:52:49.527Z,309.18
2022-09-13T08:53:49.718Z,309.18
2022-09-13T08:54:49.532Z,309.18
2022-09-13T08:55:49.536Z,309.18
2022-09-13T08:56:49.539Z,309.18
2022-09-13T08:57:49.539Z,309.18
2022-09-13T08:58:49.535Z,309.18
2022-09-13T08:59:49.533Z,309.18
2022-09-13T09:00:49.541Z,309.18
2022-09-13T09:01:49.596Z,309.18
2022-09-13T09:02:49.579Z,309.18
2022-09-13T09:03:49.685Z,309.18
2022-09-13T09:04:49.533Z,309.18
2022-09-13T09:05:49.535Z,309.18
2022-09-13T09:06:49.531Z,309.18
2022-09-13T09:07:49.530Z,309.18
2022-09-13T09:08:49.546Z,309.18
2022-09-13T09:09:49.573Z,309.18
2022-09-13T09:10:49.539Z,309.18
2022-09-13T09:11:49.546Z,309.18
2022-09-13T09:12:49.543Z,309.18
2022-09-13T09:13:49.667Z,149.65
2022-09-13T09:14:49.531Z,155.29
2022-09-13T09:15:49.571Z,160.94
2022-09-13T09:16:49.548Z,160.94
2022-09-13T09:17:49.551Z,160.94
2022-09-13T09:18:49.547Z,127.06
2022-09-13T09:19:49.535Z,127.06
2022-09-13T09:20:49.556Z,142.59
2022-09-13T09:21:49.545Z,134.12
2022-09-13T09:22:49.560Z,134.12
2022-09-13T09:23:49.658Z,134.12
2022-09-13T09:24:49.540Z,134.12
2022-09-13T09:25:49.567Z,134.12
2022-09-13T09:26:49.543Z,134.12
2022-09-13T09:27:49.539Z,134.12
2022-09-13T09:28:49.541Z,134.12
2022-09-13T09:29:49.545Z,134.12
2022-09-13T09:30:49.608Z,134.12
2022-09-13T09:31:49.548Z,134.12
2022-09-13T09:32:49.559Z,134.12
2022-09-13T09:33:49.677Z,134.12
2022-09-13T09:34:49.551Z,134.12
2022-09-13T09:35:49.554Z,134.12
2022-09-13T09:36:49.549Z,153.88
2022-09-13T09:37:49.549Z,273.88
2022-09-13T09:38:49.593Z,304.94
2022-09-13T09:39:49.614Z,255.53
2022-09-13T09:40:49.553Z,230.12
2022-09-13T09:41:49.577Z,224.47
2022-09-13T09:42:49.552Z,278.12
2022-09-13T09:43:49.650Z,194.82
2022-09-13T09:44:49.548Z,194.82
2022-09-13T09:45:49.611Z,194.82
2022-09-13T09:46:49.566Z,269.65
2022-09-13T09:47:49.562Z,289.41
2022-09-13T09:48:49.562Z,310.59
2022-09-13T09:49:49.571Z,357.18
2022-09-13T09:50:49.560Z,9.88
2022-09-13T09:51:49.559Z,338.82
2022-09-13T09:52:49.570Z,341.65
2022-09-13T09:53:49.661Z,323.29
2022-09-13T09:54:49.564Z,214.59
2022-09-13T09:55:49.560Z,213.18
2022-09-13T09:56:49.564Z,213.18
2022-09-13T09:57:49.580Z,338.82
2022-09-13T09:58:49.566Z,337.41
2022-09-13T09:59:49.562Z,316.24
2022-09-13T10:00:49.563Z,307.76
2022-09-13T10:01:49.593Z,307.76
2022-09-13T10:02:49.590Z,304.94
2022-09-13T10:03:49.714Z,292.24
2022-09-13T10:04:49.569Z,265.41
2022-09-13T10:05:49.562Z,265.41
2022-09-13T10:06:49.560Z,265.41
2022-09-13T10:07:49.570Z,254.12
2022-09-13T10:08:49.562Z,245.65
2022-09-13T10:09:49.569Z,158.12
2022-09-13T10:10:49.573Z,158.12
2022-09-13T10:11:49.562Z,256.94
2022-09-13T10:12:49.559Z,295.06
2022-09-13T10:13:49.738Z,242.82
2022-09-13T10:14:49.567Z,242.82
2022-09-13T10:15:49.571Z,242.82
2022-09-13T10:16:49.584Z,242.82
2022-09-13T10:17:49.573Z,242.82
2022-09-13T10:18:49.573Z,242.82
2022-09-13T10:19:49.573Z,242.82
2022-09-13T10:20:49.568Z,242.82
2022-09-13T10:21:49.569Z,280.94
2022-09-13T10:22:49.581Z,309.18
2022-09-13T10:23:49.572Z,288
2022-09-13T10:24:49.574Z,237.18
2022-09-13T10:25:49.578Z,237.18
2022-09-13T10:26:49.569Z,237.18
2022-09-13T10:27:49.576Z,204.71
2022-09-13T10:28:49.720Z,235.76
2022-09-13T10:29:49.603Z,235.76
2022-09-13T10:30:49.602Z,235.76
2022-09-13T10:31:49.572Z,235.76
2022-09-13T10:32:49.571Z,235.76
2022-09-13T10:33:49.578Z,235.76
2022-09-13T10:34:49.574Z,235.76
2022-09-13T10:35:49.580Z,248.47
2022-09-13T10:36:52.375Z,218.82
2022-09-13T10:37:49.579Z,186.35
2022-09-13T10:38:49.704Z,218.82
2022-09-13T10:39:49.633Z,208.94
2022-09-13T10:40:49.581Z,208.94
2022-09-13T10:41:49.578Z,225.88
2022-09-13T10:42:49.579Z,223.06
2022-09-13T10:43:49.578Z,203.29
2022-09-13T10:44:49.573Z,203.29
2022-09-13T10:45:49.719Z,203.29
2022-09-13T10:46:49.582Z,203.29
2022-09-13T10:47:50.729Z,203.29
2022-09-13T10:48:49.728Z,265.41
2022-09-13T10:49:49.575Z,273.88
2022-09-13T10:50:49.591Z,269.65
2022-09-13T10:51:49.583Z,295.06
2022-09-13T10:52:49.587Z,252.71
2022-09-13T10:53:49.586Z,234.35
2022-09-13T10:54:49.579Z,231.53
2022-09-13T10:55:49.581Z,228.71
2022-09-13T10:56:49.579Z,228.71
2022-09-13T10:57:49.592Z,206.12
2022-09-13T10:58:49.581Z,175.06
2022-09-13T10:59:49.582Z,208.94
2022-09-13T11:00:49.622Z,231.53
2022-09-13T11:01:49.688Z,204.71
2022-09-13T11:02:49.600Z,204.71
2022-09-13T11:03:49.678Z,241.41
2022-09-13T11:04:49.589Z,206.12
2022-09-13T11:05:49.586Z,194.82
2022-09-13T11:06:49.584Z,204.71
2022-09-13T11:07:49.578Z,177.88
2022-09-13T11:08:49.585Z,177.88
2022-09-13T11:09:49.586Z,177.88
2022-09-13T11:10:49.590Z,177.88
2022-09-13T11:11:49.583Z,177.88
2022-09-13T11:12:49.593Z,192
2022-09-13T11:13:49.681Z,155.29
2022-09-13T11:14:49.591Z,155.29
2022-09-13T11:15:49.624Z,155.29
2022-09-13T11:16:49.628Z,146.82
2022-09-13T11:17:49.623Z,146.82
2022-09-13T11:18:49.591Z,146.82
2022-09-13T11:19:51.323Z,234.35
2022-09-13T11:20:49.593Z,248.47
2022-09-13T11:21:49.594Z,248.47
2022-09-13T11:22:49.590Z,268.24
2022-09-13T11:23:49.676Z,268.24
2022-09-13T11:24:49.596Z,217.41
2022-09-13T11:25:49.598Z,217.41
2022-09-13T11:26:49.592Z,217.41
2022-09-13T11:27:49.611Z,221.65
2022-09-13T11:28:49.591Z,227.29
2022-09-13T11:29:49.593Z,235.76
2022-09-13T11:30:49.663Z,206.12
2022-09-13T11:31:49.650Z,206.12
2022-09-13T11:32:49.597Z,206.12
2022-09-13T11:33:49.800Z,206.12
2022-09-13T11:34:49.600Z,206.12
2022-09-13T11:35:49.615Z,210.35
2022-09-13T11:36:49.614Z,214.59
2022-09-13T11:37:49.603Z,268.24
2022-09-13T11:38:49.602Z,293.65
2022-09-13T11:39:49.650Z,238.59
2022-09-13T11:40:49.598Z,216
2022-09-13T11:41:49.608Z,216
2022-09-13T11:42:49.598Z,216
2022-09-13T11:43:49.697Z,216
2022-09-13T11:44:49.606Z,216
2022-09-13T11:45:49.632Z,216
2022-09-13T11:46:49.604Z,268.24
2022-09-13T11:47:49.601Z,238.59
2022-09-13T11:48:49.612Z,218.82
2022-09-13T11:49:49.663Z,218.82
2022-09-13T11:50:49.612Z,184.94
2022-09-13T11:51:49.604Z,184.94
2022-09-13T11:52:49.610Z,184.94
2022-09-13T11:53:49.657Z,326.12
2022-09-13T11:54:49.606Z,326.12
2022-09-13T11:55:49.618Z,310.59
2022-09-13T11:56:49.608Z,310.59
2022-09-13T11:57:49.600Z,266.82
2022-09-13T11:58:49.610Z,283.76
2022-09-13T11:59:49.601Z,286.59
2022-09-13T12:00:49.616Z,286.59
2022-09-13T12:01:49.821Z,286.59
2022-09-13T12:02:49.705Z,132.71
2022-09-13T12:03:49.649Z,132.71
2022-09-13T12:05:04.871Z,132.71
2022-09-13T12:05:49.682Z,168
2022-09-13T12:06:49.607Z,163.76
2022-09-13T12:07:49.606Z,149.65
2022-09-13T12:08:49.613Z,149.65
2022-09-13T12:09:49.607Z,310.59
2022-09-13T12:10:49.626Z,299.29
2022-09-13T12:11:49.605Z,292.24
2022-09-13T12:12:49.619Z,297.88
2022-09-13T12:13:49.745Z,278.12
2022-09-13T12:14:49.604Z,282.35
2022-09-13T12:15:49.611Z,269.65
2022-09-13T12:16:49.629Z,238.59
2022-09-13T12:17:49.612Z,201.88
2022-09-13T12:18:49.611Z,183.53
2022-09-13T12:19:49.615Z,160.94
2022-09-13T12:20:49.614Z,160.94
2022-09-13T12:21:49.632Z,160.94
2022-09-13T12:22:49.615Z,115.76
2022-09-13T12:23:49.712Z,115.76
2022-09-13T12:24:49.615Z,173.65
2022-09-13T12:25:49.621Z,180.71
2022-09-13T12:26:49.612Z,184.94
2022-09-13T12:27:49.617Z,148.24
2022-09-13T12:28:49.614Z,84.71
2022-09-13T12:29:49.611Z,96